createdAt,value
2018-08-27T00:00:07.350Z,97958.88
2018-08-27T00:02:36.736Z,97960.77
2018-08-27T00:05:06.350Z,97965.84
2018-08-27T00:07:35.755Z,97964.66
2018-08-27T00:10:05.275Z,97966.59
2018-08-27T00:12:34.676Z,97965.68
2018-08-27T00:15:04.087Z,97973.97
2018-08-27T00:17:33.516Z,97983.20
2018-08-27T00:20:03.151Z,97973.24
2018-08-27T00:22:32.562Z,97973.48
2018-08-27T00:25:01.984Z,97968.98
2018-08-27T00:27:31.638Z,97967.61
2018-08-27T00:30:01.057Z,97961.52
2018-08-27T00:32:30.540Z,97964.51
2018-08-27T00:34:59.929Z,97961.71
2018-08-27T00:37:29.499Z,97959.80
2018-08-27T00:39:59.094Z,97956.89
2018-08-27T00:42:28.535Z,97951.77
2018-08-27T00:44:57.989Z,97950.74
2018-08-27T00:47:27.526Z,97942.84
2018-08-27T00:49:56.949Z,97951.90
2018-08-27T00:52:26.543Z,97950.95
2018-08-27T00:54:55.990Z,97951.91
2018-08-27T00:57:25.398Z,97953.93
2018-08-27T00:59:55.048Z,97948.39
2018-08-27T01:02:24.483Z,97952.17
2018-08-27T01:04:53.898Z,97946.77
2018-08-27T01:07:23.505Z,97940.76
2018-08-27T01:09:52.920Z,97939.58
2018-08-27T01:12:22.353Z,97930.16
2018-08-27T01:14:51.782Z,97924.28
2018-08-27T01:17:21.190Z,97919.83
2018-08-27T01:19:50.715Z,97918.88
2018-08-27T01:22:20.177Z,97915.23
2018-08-27T01:24:49.593Z,97911.79
2018-08-27T01:27:19.137Z,97908.42
2018-08-27T01:29:48.603Z,97903.75
2018-08-27T01:32:23.130Z,97895.86
2018-08-27T01:34:52.556Z,97903.66
2018-08-27T01:37:22.001Z,97910.17
2018-08-27T01:39:51.437Z,97910.61
2018-08-27T01:42:21.527Z,97909.73
2018-08-27T01:44:50.943Z,97913.82
2018-08-27T01:47:20.442Z,97912.64
2018-08-27T01:49:49.909Z,97910.31
2018-08-27T01:52:19.334Z,97903.93
2018-08-27T01:54:48.841Z,97896.47
2018-08-27T01:57:18.220Z,97897.14
2018-08-27T01:59:47.637Z,97898.16
2018-08-27T02:02:17.006Z,97903.22
2018-08-27T02:04:46.464Z,97898.33
2018-08-27T02:07:15.894Z,97892.83
2018-08-27T02:09:45.351Z,97891.23
2018-08-27T02:12:14.768Z,97890.56
2018-08-27T02:14:44.287Z,97890.86
2018-08-27T02:17:13.807Z,97886.47
2018-08-27T02:19:43.205Z,97879.83
2018-08-27T02:22:12.755Z,97889.85
2018-08-27T02:24:42.283Z,97881.34
2018-08-27T02:27:11.734Z,97886.61
2018-08-27T02:29:41.264Z,97886.34
2018-08-27T02:32:10.705Z,97890.42
2018-08-27T02:34:40.163Z,97886.91
2018-08-27T02:37:09.840Z,97891.58
2018-08-27T02:39:39.244Z,97886.82
2018-08-27T02:42:08.659Z,97888.67
2018-08-27T02:44:38.220Z,97882.09
2018-08-27T02:47:07.686Z,97884.93
2018-08-27T02:49:37.218Z,97886.45
2018-08-27T02:52:06.650Z,97893.33
2018-08-27T02:54:36.075Z,97884.12
2018-08-27T02:57:05.662Z,97877.53
2018-08-27T02:59:35.038Z,97883.03
2018-08-27T03:02:04.464Z,97880.91
2018-08-27T03:04:33.793Z,97883.23
2018-08-27T03:07:03.207Z,97876.52
2018-08-27T03:09:32.629Z,97867.88
2018-08-27T03:12:02.142Z,97869.70
2018-08-27T03:14:31.755Z,97863.49
2018-08-27T03:17:01.186Z,97864.09
2018-08-27T03:19:30.652Z,97868.63
2018-08-27T03:22:00.021Z,97870.54
2018-08-27T03:24:30.210Z,97866.09
2018-08-27T03:26:59.618Z,97873.24
2018-08-27T03:29:29.050Z,97873.45
2018-08-27T03:31:58.669Z,97872.73
2018-08-27T03:34:28.141Z,97874.05
2018-08-27T03:36:57.571Z,97873.30
2018-08-27T03:39:27.013Z,97871.48
2018-08-27T03:41:56.557Z,97874.11
2018-08-27T03:44:26.209Z,97872.73
2018-08-27T03:46:55.621Z,97869.29
2018-08-27T03:49:25.029Z,97866.45
2018-08-27T03:51:54.622Z,97865.14
2018-08-27T03:54:24.076Z,97871.78
2018-08-27T03:56:53.547Z,97871.48
2018-08-27T03:59:23.013Z,97866.02
2018-08-27T04:01:52.466Z,97863.38
2018-08-27T04:04:22.149Z,97867.90
2018-08-27T04:06:51.602Z,97875.96
2018-08-27T04:09:21.019Z,97873.16
2018-08-27T04:11:50.645Z,97873.97
2018-08-27T04:14:20.105Z,97888.25
2018-08-27T04:16:49.584Z,97891.89
2018-08-27T04:19:19.027Z,97900.98
2018-08-27T04:21:48.494Z,97898.13
2018-08-27T04:24:18.022Z,97895.42
2018-08-27T04:26:47.430Z,97891.81
2018-08-27T04:29:16.961Z,97895.69
2018-08-27T04:31:46.389Z,97901.16
2018-08-27T04:34:15.878Z,97898.46
2018-08-27T04:36:45.508Z,97898.59
2018-08-27T04:39:14.928Z,97904.30
2018-08-27T04:41:44.369Z,97901.36
2018-08-27T04:44:14.055Z,97905.31
2018-08-27T04:46:43.455Z,97889.66
2018-08-27T04:49:13.528Z,97896.03
2018-08-27T04:51:42.899Z,97904.94
2018-08-27T04:54:12.363Z,97912.39
2018-08-27T04:56:41.836Z,97916.14
2018-08-27T04:59:14.484Z,97913.78
2018-08-27T05:01:43.949Z,97912.90
2018-08-27T05:04:13.387Z,97915.02
2018-08-27T05:06:42.768Z,97917.27
2018-08-27T05:09:12.638Z,97910.08
2018-08-27T05:11:42.023Z,97909.38
2018-08-27T05:14:12.044Z,97914.71
2018-08-27T05:16:41.514Z,97919.59
2018-08-27T05:19:10.939Z,97918.72
2018-08-27T05:21:40.322Z,97916.08
2018-08-27T05:24:09.726Z,97915.27
2018-08-27T05:26:39.233Z,97920.03
2018-08-27T05:29:08.645Z,97927.11
2018-08-27T05:31:38.085Z,97926.30
2018-08-27T05:34:07.492Z,97920.41
2018-08-27T05:36:36.967Z,97919.47
2018-08-27T05:39:09.354Z,97918.45
2018-08-27T05:41:38.994Z,97921.66
2018-08-27T05:44:08.403Z,97928.82
2018-08-27T05:46:37.856Z,97920.92
2018-08-27T05:49:07.277Z,97925.48
2018-08-27T05:51:36.679Z,97924.03
2018-08-27T05:54:06.175Z,97926.94
2018-08-27T05:56:35.640Z,97928.13
2018-08-27T05:59:05.083Z,97926.30
2018-08-27T06:01:34.769Z,97932.14
2018-08-27T06:04:04.288Z,97927.11
2018-08-27T06:06:33.753Z,97931.94
2018-08-27T06:09:03.261Z,97924.21
2018-08-27T06:11:32.678Z,97935.52
2018-08-27T06:14:02.153Z,97939.34
2018-08-27T06:16:31.625Z,97932.86
2018-08-27T06:19:01.099Z,97942.14
2018-08-27T06:21:30.857Z,97935.13
2018-08-27T06:24:00.640Z,97944.77
2018-08-27T06:26:30.110Z,97931.68
2018-08-27T06:28:59.527Z,97929.86
2018-08-27T06:31:28.985Z,97930.97
2018-08-27T06:33:58.456Z,97929.66
2018-08-27T06:36:27.877Z,97936.16
2018-08-27T06:38:57.271Z,97938.87
2018-08-27T06:41:26.780Z,97936.53
2018-08-27T06:43:56.214Z,97927.39
2018-08-27T06:46:25.594Z,97931.41
2018-08-27T06:48:55.068Z,97934.71
2018-08-27T06:51:24.460Z,97935.08
2018-08-27T06:53:54.179Z,97934.64
2018-08-27T06:56:23.706Z,97923.45
2018-08-27T06:58:53.122Z,97926.86
2018-08-27T07:01:22.590Z,97926.01
2018-08-27T07:03:52.398Z,97925.27
2018-08-27T07:06:21.855Z,97932.16
2018-08-27T07:08:51.260Z,97928.48
2018-08-27T07:11:20.748Z,97938.72
2018-08-27T07:13:50.131Z,97936.63
2018-08-27T07:16:19.549Z,97939.99
2018-08-27T07:18:48.996Z,97942.84
2018-08-27T07:21:18.432Z,97944.31
2018-08-27T07:23:47.901Z,97944.14
2018-08-27T07:26:17.377Z,97950.16
2018-08-27T07:28:46.836Z,97959.58
2018-08-27T07:31:16.304Z,97967.59
2018-08-27T07:33:45.710Z,97966.75
2018-08-27T07:36:15.285Z,97962.22
2018-08-27T07:38:44.645Z,97957.31
2018-08-27T07:41:14.131Z,97963.63
2018-08-27T07:43:44.603Z,97963.49
2018-08-27T07:46:14.144Z,97960.11
2018-08-27T07:48:43.586Z,97970.08
2018-08-27T07:51:13.057Z,97974.91
2018-08-27T07:53:42.455Z,97973.17
2018-08-27T07:56:11.914Z,97985.03
2018-08-27T07:58:42.751Z,97982.41
2018-08-27T08:01:12.162Z,97989.13
2018-08-27T08:03:41.631Z,97988.31
2018-08-27T08:06:11.073Z,97998.34
2018-08-27T08:08:40.825Z,98002.60
2018-08-27T08:11:10.287Z,98005.69
2018-08-27T08:13:39.791Z,98010.58
2018-08-27T08:16:09.226Z,98014.77
2018-08-27T08:18:38.717Z,98010.38
2018-08-27T08:21:08.184Z,98011.25
2018-08-27T08:23:37.675Z,98009.72
2018-08-27T08:26:07.159Z,98010.66
2018-08-27T08:28:36.610Z,98012.13
2018-08-27T08:31:06.318Z,98001.29
2018-08-27T08:33:35.711Z,98005.97
2018-08-27T08:36:05.220Z,98003.61
2018-08-27T08:38:34.691Z,98001.86
2018-08-27T08:41:04.141Z,98005.81
2018-08-27T08:43:33.545Z,98006.63
2018-08-27T08:46:03.057Z,98013.16
2018-08-27T08:48:32.501Z,98019.30
2018-08-27T08:51:01.968Z,98006.33
2018-08-27T08:53:31.435Z,98021.37
2018-08-27T08:56:01.068Z,98021.14
2018-08-27T08:58:30.474Z,98000.48
2018-08-27T09:00:59.976Z,98011.69
2018-08-27T09:03:29.646Z,97995.13
2018-08-27T09:05:59.090Z,98000.11
2018-08-27T09:08:28.645Z,98001.70
2018-08-27T09:10:57.966Z,98003.02
2018-08-27T09:13:27.442Z,98004.77
2018-08-27T09:15:56.857Z,98010.25
2018-08-27T09:18:26.269Z,98012.95
2018-08-27T09:20:55.726Z,98017.11
2018-08-27T09:23:25.165Z,98017.17
2018-08-27T09:25:54.639Z,98012.20
2018-08-27T09:28:24.014Z,98013.30
2018-08-27T09:30:53.438Z,98011.29
2018-08-27T09:33:22.851Z,98008.30
2018-08-27T09:35:52.323Z,98018.64
2018-08-27T09:38:21.855Z,98022.45
2018-08-27T09:40:51.239Z,98015.87
2018-08-27T09:43:20.716Z,98017.34
2018-08-27T09:45:50.163Z,98021.45
2018-08-27T09:48:19.573Z,98022.97
2018-08-27T09:50:49.008Z,98021.98
2018-08-27T09:53:18.769Z,98020.91
2018-08-27T09:55:48.248Z,98016.55
2018-08-27T09:58:17.672Z,98032.59
2018-08-27T10:00:52.231Z,98028.33
2018-08-27T10:03:21.650Z,98030.32
2018-08-27T10:05:51.073Z,98033.72
2018-08-27T10:08:20.567Z,98034.83
2018-08-27T10:10:50.075Z,98041.50
2018-08-27T10:13:19.484Z,98037.70
2018-08-27T10:15:48.957Z,98041.96
2018-08-27T10:18:18.381Z,98043.10
2018-08-27T10:20:47.857Z,98051.14
2018-08-27T10:23:17.358Z,98052.67
2018-08-27T10:25:46.842Z,98050.55
2018-08-27T10:28:16.214Z,98063.53
2018-08-27T10:30:45.694Z,98056.13
2018-08-27T10:33:15.109Z,98059.51
2018-08-27T10:35:44.591Z,98064.48
2018-08-27T10:38:14.055Z,98067.64
2018-08-27T10:40:43.469Z,98066.98
2018-08-27T10:43:12.945Z,98064.48
2018-08-27T10:45:42.375Z,98059.41
2018-08-27T10:48:11.818Z,98064.54
2018-08-27T10:50:41.247Z,98068.71
2018-08-27T10:53:10.654Z,98073.13
2018-08-27T10:55:40.093Z,98066.52
2018-08-27T10:58:09.613Z,98069.88
2018-08-27T11:00:39.052Z,98075.16
2018-08-27T11:03:08.464Z,98062.82
2018-08-27T11:05:37.950Z,98074.49
2018-08-27T11:08:07.487Z,98075.52
2018-08-27T11:10:36.990Z,98079.72
2018-08-27T11:13:06.631Z,98081.30
2018-08-27T11:15:36.162Z,98077.59
2018-08-27T11:18:05.876Z,98077.23
2018-08-27T11:20:35.536Z,98067.02
2018-08-27T11:23:04.979Z,98067.39
2018-08-27T11:25:34.358Z,98070.17
2018-08-27T11:28:03.854Z,98068.61
2018-08-27T11:30:33.328Z,98067.39
2018-08-27T11:33:02.802Z,98067.69
2018-08-27T11:35:32.165Z,98063.91
2018-08-27T11:38:01.621Z,98071.25
2018-08-27T11:40:31.010Z,98084.59
2018-08-27T11:43:00.934Z,98083.44
2018-08-27T11:45:30.465Z,98085.16
2018-08-27T11:48:00.174Z,98084.03
2018-08-27T11:50:29.733Z,98084.89
2018-08-27T11:52:59.257Z,98086.57
2018-08-27T11:55:29.171Z,98090.02
2018-08-27T11:57:58.597Z,98095.47
2018-08-27T12:00:33.190Z,98093.23
2018-08-27T12:03:02.644Z,98098.59
2018-08-27T12:05:32.142Z,98095.50
2018-08-27T12:08:01.652Z,98098.44
2018-08-27T12:10:31.097Z,98095.04
2018-08-27T12:13:00.522Z,98095.09
2018-08-27T12:15:30.046Z,98094.98
2018-08-27T12:17:59.407Z,98095.28
2018-08-27T12:20:29.866Z,98106.88
2018-08-27T12:22:59.255Z,98105.55
2018-08-27T12:25:28.664Z,98103.36
2018-08-27T12:27:58.173Z,98098.33
2018-08-27T12:30:27.632Z,98101.27
2018-08-27T12:32:57.079Z,98097.46
2018-08-27T12:35:26.623Z,98090.97
2018-08-27T12:37:56.671Z,98084.25
2018-08-27T12:40:26.069Z,98094.81
2018-08-27T12:42:55.587Z,98092.47
2018-08-27T12:45:25.024Z,98094.34
2018-08-27T12:47:54.503Z,98095.47
2018-08-27T12:50:24.103Z,98094.14
2018-08-27T12:52:53.601Z,98108.66
2018-08-27T12:55:23.030Z,98107.50
2018-08-27T12:57:52.473Z,98111.34
2018-08-27T13:00:21.941Z,98113.02
2018-08-27T13:02:51.510Z,98116.25
2018-08-27T13:05:20.928Z,98110.33
2018-08-27T13:07:50.529Z,98127.22
2018-08-27T13:10:20.275Z,98124.12
2018-08-27T13:12:50.219Z,98130.69
2018-08-27T13:15:19.606Z,98130.09
2018-08-27T13:17:48.999Z,98131.71
2018-08-27T13:20:18.426Z,98135.56
2018-08-27T13:22:47.835Z,98128.98
2018-08-27T13:25:17.403Z,98133.08
2018-08-27T13:27:46.830Z,98144.13
2018-08-27T13:30:16.400Z,98144.56
2018-08-27T13:32:45.956Z,98141.97
2018-08-27T13:35:15.393Z,98144.22
2018-08-27T13:37:44.887Z,98143.06
2018-08-27T13:40:15.118Z,98141.35
2018-08-27T13:42:44.727Z,98138.31
2018-08-27T13:45:14.226Z,98151.89
2018-08-27T13:47:43.658Z,98143.35
2018-08-27T13:50:13.195Z,98140.44
2018-08-27T13:52:42.674Z,98132.88
2018-08-27T13:55:12.382Z,98135.63
2018-08-27T13:57:41.776Z,98136.56
2018-08-27T14:00:16.504Z,98140.57
2018-08-27T14:02:45.955Z,98144.44
2018-08-27T14:05:15.480Z,98144.27
2018-08-27T14:07:44.954Z,98143.45
2018-08-27T14:10:14.698Z,98149.52
2018-08-27T14:12:44.355Z,98153.49
2018-08-27T14:15:13.914Z,98155.33
2018-08-27T14:17:43.297Z,98152.55
2018-08-27T14:20:12.894Z,98153.97
2018-08-27T14:22:42.330Z,98155.33
2018-08-27T14:25:11.859Z,98158.45
2018-08-27T14:27:41.279Z,98165.55
2018-08-27T14:30:10.762Z,98166.63
2018-08-27T14:32:40.251Z,98160.63
2018-08-27T14:35:09.858Z,98162.33
2018-08-27T14:37:39.324Z,98154.97
2018-08-27T14:40:09.235Z,98155.30
2018-08-27T14:42:38.746Z,98157.77
2018-08-27T14:45:08.944Z,98158.47
2018-08-27T14:47:38.523Z,98157.98
2018-08-27T14:50:08.167Z,98164.28
2018-08-27T14:52:37.657Z,98154.48
2018-08-27T14:55:07.264Z,98161.41
2018-08-27T14:57:36.652Z,98146.39
2018-08-27T15:00:06.498Z,98155.81
2018-08-27T15:02:35.885Z,98160.02
2018-08-27T15:05:05.530Z,98167.81
2018-08-27T15:07:34.968Z,98166.27
2018-08-27T15:10:04.429Z,98165.46
2018-08-27T15:12:33.891Z,98172.56
2018-08-27T15:15:03.336Z,98167.30
2018-08-27T15:17:32.793Z,98167.53
2018-08-27T15:20:02.237Z,98164.76
2018-08-27T15:22:31.726Z,98175.08
2018-08-27T15:25:01.215Z,98175.92
2018-08-27T15:27:30.697Z,98176.69
2018-08-27T15:30:00.142Z,98173.33
2018-08-27T15:32:29.693Z,98168.16
2018-08-27T15:34:59.225Z,98170.23
2018-08-27T15:37:28.807Z,98171.58
2018-08-27T15:39:58.121Z,98170.55
2018-08-27T15:42:27.541Z,98175.89
2018-08-27T15:44:59.671Z,98177.34
2018-08-27T15:47:29.103Z,98174.23
2018-08-27T15:49:58.723Z,98177.20
2018-08-27T15:52:28.134Z,98165.91
2018-08-27T15:54:57.566Z,98175.29
2018-08-27T15:57:27.055Z,98173.70
2018-08-27T15:59:56.528Z,98171.69
2018-08-27T16:02:26.177Z,98176.82
2018-08-27T16:04:55.641Z,98174.86
2018-08-27T16:07:26.028Z,98176.42
2018-08-27T16:09:55.552Z,98179.91
2018-08-27T16:12:24.992Z,98179.77
2018-08-27T16:14:54.391Z,98176.42
2018-08-27T16:17:24.351Z,98178.09
2018-08-27T16:19:54.311Z,98173.80
2018-08-27T16:22:23.768Z,98170.10
2018-08-27T16:24:53.250Z,98174.11
2018-08-27T16:27:22.699Z,98172.95
2018-08-27T16:29:52.111Z,98181.98
2018-08-27T16:32:21.588Z,98179.65
2018-08-27T16:34:51.471Z,98174.08
2018-08-27T16:37:20.963Z,98168.86
2018-08-27T16:39:50.604Z,98172.30
2018-08-27T16:42:20.005Z,98170.33
2018-08-27T16:44:49.451Z,98161.97
2018-08-27T16:47:18.915Z,98167.09
2018-08-27T16:49:48.452Z,98171.08
2018-08-27T16:52:18.022Z,98171.60
2018-08-27T16:54:47.532Z,98175.78
2018-08-27T16:57:17.019Z,98174.75
2018-08-27T16:59:46.544Z,98177.02
2018-08-27T17:02:16.015Z,98180.66
2018-08-27T17:04:45.466Z,98177.45
2018-08-27T17:07:14.906Z,98182.83
2018-08-27T17:09:44.503Z,98182.27
2018-08-27T17:12:13.919Z,98180.66
2018-08-27T17:14:43.375Z,98181.44
2018-08-27T17:17:12.885Z,98175.00
2018-08-27T17:19:42.330Z,98174.83
2018-08-27T17:22:11.742Z,98174.86
2018-08-27T17:24:45.177Z,98175.17
2018-08-27T17:27:15.911Z,98174.86
2018-08-27T17:29:45.310Z,98172.47
2018-08-27T17:32:15.113Z,98183.57
2018-08-27T17:34:44.564Z,98184.09
2018-08-27T17:37:14.075Z,98188.56
2018-08-27T17:39:43.575Z,98193.90
2018-08-27T17:42:12.931Z,98193.35
2018-08-27T17:44:42.420Z,98202.03
2018-08-27T17:47:11.905Z,98206.20
2018-08-27T17:49:41.269Z,98206.17
2018-08-27T17:52:10.733Z,98210.96
2018-08-27T17:54:40.688Z,98217.27
2018-08-27T17:57:10.331Z,98224.13
2018-08-27T17:59:39.818Z,98225.09
2018-08-27T18:02:09.283Z,98220.28
2018-08-27T18:04:38.766Z,98220.76
2018-08-27T18:07:08.673Z,98224.13
2018-08-27T18:09:38.694Z,98221.14
2018-08-27T18:12:10.128Z,98226.31
2018-08-27T18:14:39.535Z,98230.48
2018-08-27T18:17:08.940Z,98227.46
2018-08-27T18:19:38.478Z,98237.41
2018-08-27T18:22:08.084Z,98247.94
2018-08-27T18:24:38.150Z,98249.73
2018-08-27T18:27:07.837Z,98257.88
2018-08-27T18:29:37.299Z,98256.22
2018-08-27T18:32:06.829Z,98267.30
2018-08-27T18:34:36.241Z,98264.83
2018-08-27T18:37:05.736Z,98261.55
2018-08-27T18:39:35.821Z,98267.31
2018-08-27T18:42:05.306Z,98273.90
2018-08-27T18:44:35.063Z,98275.44
2018-08-27T18:47:06.505Z,98273.56
2018-08-27T18:49:37.064Z,98289.16
2018-08-27T18:52:07.905Z,98285.95
2018-08-27T18:54:37.574Z,98289.34
2018-08-27T18:57:08.114Z,98289.86
2018-08-27T18:59:38.682Z,98290.28
2018-08-27T19:02:08.404Z,98293.40
2018-08-27T19:04:37.870Z,98296.22
2018-08-27T19:07:07.394Z,98296.39
2018-08-27T19:09:36.840Z,98300.83
2018-08-27T19:12:06.289Z,98302.84
2018-08-27T19:14:35.795Z,98312.88
2018-08-27T19:17:05.272Z,98321.77
2018-08-27T19:19:34.799Z,98317.97
2018-08-27T19:22:04.256Z,98318.94
2018-08-27T19:24:33.845Z,98319.36
2018-08-27T19:27:03.208Z,98322.63
2018-08-27T19:29:32.744Z,98325.20
2018-08-27T19:32:02.163Z,98328.85
2018-08-27T19:34:31.641Z,98333.95
2018-08-27T19:37:01.225Z,98340.69
2018-08-27T19:39:31.727Z,98335.81
2018-08-27T19:42:01.151Z,98344.11
2018-08-27T19:44:30.612Z,98345.53
2018-08-27T19:47:00.156Z,98341.12
2018-08-27T19:49:29.579Z,98340.14
2018-08-27T19:51:59.128Z,98340.65
2018-08-27T19:54:28.608Z,98339.63
2018-08-27T19:56:58.086Z,98349.50
2018-08-27T19:59:27.486Z,98351.55
2018-08-27T20:01:56.942Z,98355.09
2018-08-27T20:04:26.489Z,98357.75
2018-08-27T20:06:56.428Z,98357.59
2018-08-27T20:09:26.021Z,98358.94
2018-08-27T20:11:55.645Z,98356.74
2018-08-27T20:14:25.050Z,98363.19
2018-08-27T20:16:54.629Z,98364.95
2018-08-27T20:19:24.202Z,98370.38
2018-08-27T20:21:53.683Z,98370.46
2018-08-27T20:24:23.122Z,98376.70
2018-08-27T20:26:52.610Z,98375.52
2018-08-27T20:29:22.045Z,98374.77
2018-08-27T20:31:51.489Z,98382.70
2018-08-27T20:34:20.931Z,98386.83
2018-08-27T20:36:50.537Z,98391.64
2018-08-27T20:39:20.178Z,98394.41
2018-08-27T20:41:49.502Z,98393.83
2018-08-27T20:44:19.057Z,98399.98
2018-08-27T20:46:48.502Z,98400.86
2018-08-27T20:49:17.919Z,98408.14
2018-08-27T20:51:47.530Z,98410.20
2018-08-27T20:54:16.956Z,98415.69
2018-08-27T20:56:46.398Z,98416.42
2018-08-27T20:59:16.375Z,98426.00
2018-08-27T21:01:45.915Z,98421.66
2018-08-27T21:04:15.893Z,98425.66
2018-08-27T21:06:45.771Z,98424.70
2018-08-27T21:09:15.752Z,98434.80
2018-08-27T21:11:45.159Z,98437.98
2018-08-27T21:15:18.530Z,98437.61
2018-08-27T21:17:51.006Z,98440.88
2018-08-27T21:20:21.279Z,98441.07
2018-08-27T21:22:51.403Z,98443.08
2018-08-27T21:25:21.876Z,98451.78
2018-08-27T21:27:51.851Z,98451.63
2018-08-27T21:30:22.178Z,98455.34
2018-08-27T21:32:51.600Z,98449.91
2018-08-27T21:35:21.080Z,98455.89
2018-08-27T21:37:50.596Z,98456.54
2018-08-27T21:40:20.189Z,98463.05
2018-08-27T21:42:49.565Z,98464.37
2018-08-27T21:45:18.973Z,98467.39
2018-08-27T21:47:48.940Z,98467.81
2018-08-27T21:50:18.867Z,98479.52
2018-08-27T21:52:48.295Z,98476.70
2018-08-27T21:55:17.705Z,98475.07
2018-08-27T21:57:47.083Z,98476.50
2018-08-27T22:00:16.540Z,98480.45
2018-08-27T22:02:51.115Z,98475.62
2018-08-27T22:05:20.570Z,98472.89
2018-08-27T22:07:50.118Z,98474.81
2018-08-27T22:10:19.630Z,98483.76
2018-08-27T22:12:49.060Z,98481.23
2018-08-27T22:15:18.461Z,98482.42
2018-08-27T22:17:48.020Z,98486.09
2018-08-27T22:20:17.637Z,98489.14
2018-08-27T22:22:47.098Z,98490.47
2018-08-27T22:25:16.611Z,98494.52
2018-08-27T22:27:46.052Z,98497.16
2018-08-27T22:30:15.512Z,98503.73
2018-08-27T22:32:44.935Z,98504.25
2018-08-27T22:35:14.376Z,98509.21
2018-08-27T22:37:43.882Z,98507.89
2018-08-27T22:40:13.810Z,98510.62
2018-08-27T22:42:43.707Z,98517.93
2018-08-27T22:45:13.103Z,98517.52
2018-08-27T22:47:42.516Z,98517.93
2018-08-27T22:50:11.942Z,98517.93
2018-08-27T22:52:41.355Z,98522.88
2018-08-27T22:55:10.844Z,98519.44
2018-08-27T22:57:40.714Z,98529.46
2018-08-27T23:00:10.180Z,98525.52
2018-08-27T23:02:44.794Z,98530.05
2018-08-27T23:05:14.167Z,98529.64
2018-08-27T23:07:43.594Z,98531.77
2018-08-27T23:10:12.961Z,98529.80
2018-08-27T23:12:42.378Z,98525.26
2018-08-27T23:15:11.770Z,98533.56
2018-08-27T23:17:41.339Z,98533.84
2018-08-27T23:20:10.922Z,98534.70
2018-08-27T23:22:40.373Z,98540.69
2018-08-27T23:25:09.920Z,98540.03
2018-08-27T23:27:39.425Z,98534.59
2018-08-27T23:30:08.884Z,98530.83
2018-08-27T23:32:38.308Z,98535.58
2018-08-27T23:35:07.758Z,98538.63
2018-08-27T23:37:37.246Z,98539.91
2018-08-27T23:40:07.651Z,98546.81
2018-08-27T23:42:37.053Z,98546.57
2018-08-27T23:45:06.559Z,98543.94
2018-08-27T23:47:35.887Z,98548.70
2018-08-27T23:50:05.784Z,98551.81
2018-08-27T23:52:35.363Z,98552.28
2018-08-27T23:55:05.242Z,98557.55
2018-08-27T23:57:34.775Z,98561.77
